createdAt,value
2016-07-04T16:22:24.681Z,5680
2016-07-04T16:22:34.574Z,5660
2016-07-04T16:23:35.173Z,5552
2016-07-04T16:24:34.597Z,5336
2016-07-04T16:26:34.003Z,4972
2016-07-04T16:28:34.234Z,4868
2016-07-04T16:30:35.474Z,4992
2016-07-04T16:31:35.299Z,4976
2016-07-04T16:32:35.323Z,4828
2016-07-04T16:33:35.297Z,4992
2016-07-04T16:34:34.313Z,4984
2016-07-04T16:36:49.379Z,4736
2016-07-04T16:37:35.998Z,4748
2016-07-04T16:38:34.763Z,4848
2016-07-04T16:39:35.990Z,5032
2016-07-04T16:40:34.195Z,5176
2016-07-04T16:41:35.024Z,5356
2016-07-04T16:42:34.618Z,5432
2016-07-04T16:44:35.522Z,5340
2016-07-04T16:46:35.926Z,5368
2016-07-04T16:47:35.122Z,5392
2016-07-04T16:48:35.518Z,5576
2016-07-04T16:49:34.316Z,5780
2016-07-04T16:50:35.887Z,6164
2016-07-04T16:51:35.984Z,6580
2016-07-04T16:52:35.829Z,6904
2016-07-04T16:53:50.632Z,6896
2016-07-04T16:54:36.428Z,6784
2016-07-04T16:55:35.829Z,6728
2016-07-04T16:56:36.037Z,6716
2016-07-04T16:58:35.706Z,6548
2016-07-04T17:00:35.914Z,6096
2016-07-04T17:01:36.564Z,6000
2016-07-04T17:02:50.187Z,6012
2016-07-04T17:03:50.814Z,6180
2016-07-04T17:04:36.155Z,6452
2016-07-04T17:05:35.766Z,6948
2016-07-04T17:06:50.229Z,7832
2016-07-04T17:07:51.046Z,8672
2016-07-04T17:08:50.027Z,9256
2016-07-04T17:09:36.467Z,9544
2016-07-04T17:10:35.606Z,9804
2016-07-04T17:13:05.314Z,10332
2016-07-04T17:13:35.893Z,10316
2016-07-04T17:14:49.716Z,10036
2016-07-04T17:15:36.287Z,9740
2016-07-04T17:16:36.761Z,9544
2016-07-04T17:17:36.347Z,9460
2016-07-04T17:19:36.806Z,9556
2016-07-04T17:20:50.586Z,9652
2016-07-04T17:21:51.052Z,9636
2016-07-04T17:22:36.214Z,9568
2016-07-04T17:24:50.863Z,9168
2016-07-04T17:25:50.264Z,9132
2016-07-04T17:26:50.652Z,9076
2016-07-04T17:27:36.350Z,8980
2016-07-04T17:28:36.924Z,8684
2016-07-04T17:29:50.713Z,8216
2016-07-04T17:30:35.745Z,7956
2016-07-04T17:31:36.744Z,7592
2016-07-04T17:32:36.968Z,7268
2016-07-04T17:33:51.209Z,7276
2016-07-04T17:34:36.128Z,7484
2016-07-04T17:35:51.043Z,7964
2016-07-04T17:37:36.849Z,8296
2016-07-04T17:38:36.806Z,8196
2016-07-04T17:39:50.822Z,7736
2016-07-04T17:40:36.868Z,7416
2016-07-04T17:41:36.273Z,7108
2016-07-04T17:42:50.680Z,6944
2016-07-04T17:43:37.970Z,6912
2016-07-04T17:44:36.490Z,6912
2016-07-04T17:45:51.545Z,6920
2016-07-04T17:46:51.345Z,6932
2016-07-04T17:47:50.952Z,6952
2016-07-04T17:48:38.185Z,6948
2016-07-04T17:49:36.970Z,6884
2016-07-04T17:50:36.578Z,6760
2016-07-04T17:51:51.427Z,6564
2016-07-04T17:52:36.597Z,6584
2016-07-04T17:53:37.267Z,6800
2016-07-04T17:54:35.435Z,7056
2016-07-04T17:55:50.640Z,6892
2016-07-04T17:56:51.688Z,6584
2016-07-04T17:57:51.525Z,6292
2016-07-04T17:58:37.524Z,6088
2016-07-04T17:59:36.894Z,5820
2016-07-04T18:00:51.583Z,5508
2016-07-04T18:01:36.502Z,5276
2016-07-04T18:02:38.362Z,4896
2016-07-04T18:04:37.392Z,4196
2016-07-04T18:05:50.558Z,3908
2016-07-04T18:06:37.008Z,3712
2016-07-04T18:07:37.201Z,3436
2016-07-04T18:08:36.799Z,3224
2016-07-04T18:09:35.371Z,3104
2016-07-04T18:10:51.873Z,3008
2016-07-04T18:11:37.230Z,2960
2016-07-04T18:12:51.690Z,2896
2016-07-04T18:13:37.699Z,2864
2016-07-04T18:14:36.889Z,2816
2016-07-04T18:15:37.520Z,2780
2016-07-04T18:16:36.083Z,2756
2016-07-04T18:17:36.715Z,2732
2016-07-04T18:18:36.923Z,2712
2016-07-04T18:19:36.774Z,2728
2016-07-04T18:20:37.387Z,2756
2016-07-04T18:21:51.002Z,2768
2016-07-04T18:22:50.773Z,2756
2016-07-04T18:24:37.042Z,2804
2016-07-04T18:25:37.039Z,2800
2016-07-04T18:26:52.088Z,2788
2016-07-04T18:27:37.875Z,2808
2016-07-04T18:28:51.079Z,2796
2016-07-04T18:29:36.237Z,2776
2016-07-04T18:30:37.073Z,2736
2016-07-04T18:31:36.683Z,2652
2016-07-04T18:32:36.887Z,2540
2016-07-04T18:33:51.322Z,2452
2016-07-04T18:34:51.322Z,2436
2016-07-04T18:35:51.970Z,2372
2016-07-04T18:36:37.157Z,2284
2016-07-04T18:37:37.349Z,2156
2016-07-04T18:38:52.444Z,2020
2016-07-04T18:39:51.837Z,1916
2016-07-04T18:40:37.824Z,1836
2016-07-04T18:41:36.992Z,1752
2016-07-04T18:42:37.409Z,1680
2016-07-04T18:43:36.810Z,1616
2016-07-04T18:44:52.481Z,1540
2016-07-04T18:45:37.864Z,1504
2016-07-04T18:46:37.517Z,1464
2016-07-04T18:47:51.485Z,1420
2016-07-04T18:48:37.918Z,1392
2016-07-04T18:49:36.703Z,1356
2016-07-04T18:50:37.466Z,1324
2016-07-04T18:51:37.080Z,1288
2016-07-04T18:52:37.328Z,1256
2016-07-04T18:54:51.763Z,1160
2016-07-04T18:55:37.137Z,1124
2016-07-04T18:56:36.970Z,1076
2016-07-04T18:57:36.624Z,1036
2016-07-04T18:58:37.953Z,992
2016-07-04T18:59:37.021Z,948
2016-07-04T19:00:38.583Z,900
2016-07-04T19:01:38.869Z,860
2016-07-04T19:02:53.649Z,808
2016-07-04T19:03:52.917Z,764
2016-07-04T19:04:40.860Z,732
2016-07-04T19:05:39.985Z,700
2016-07-04T19:06:38.192Z,668
2016-07-04T19:07:52.765Z,628
2016-07-04T19:08:40.186Z,600
2016-07-04T19:10:38.611Z,544
2016-07-04T19:11:36.715Z,516
2016-07-04T19:12:40.653Z,484
2016-07-04T19:13:37.366Z,460
2016-07-04T19:16:50.981Z,380
2016-07-04T19:17:36.564Z,360
2016-07-04T19:18:51.411Z,332
2016-07-04T19:19:36.364Z,316
2016-07-04T19:22:37.846Z,252
2016-07-04T19:23:52.054Z,228
2016-07-04T19:24:38.283Z,212
2016-07-04T19:25:38.318Z,196
2016-07-04T19:26:37.924Z,180
2016-07-04T19:27:51.178Z,164
2016-07-04T19:28:36.902Z,152
2016-07-04T19:29:37.241Z,140
2016-07-04T19:30:36.494Z,128
2016-07-04T19:31:51.954Z,112
2016-07-04T19:32:36.861Z,104
2016-07-04T19:33:38.534Z,92
2016-07-04T19:36:36.626Z,68
2016-07-04T19:38:51.177Z,56
2016-07-04T19:39:36.763Z,48
2016-07-04T19:40:51.320Z,44
2016-07-04T19:41:38.971Z,40
2016-07-04T19:42:51.627Z,32
2016-07-04T19:43:53.102Z,32
2016-07-04T19:44:37.254Z,24
2016-07-04T19:45:37.659Z,24
2016-07-04T19:46:37.055Z,24
2016-07-04T19:47:37.056Z,16
2016-07-04T19:48:37.659Z,20
2016-07-04T19:49:51.919Z,16
2016-07-04T19:50:37.493Z,12
2016-07-04T19:51:37.700Z,12
2016-07-04T19:52:36.487Z,12
2016-07-04T19:55:37.108Z,8
2016-07-04T19:56:36.521Z,4
2016-07-04T19:57:36.523Z,8
2016-07-04T19:58:37.446Z,4
2016-07-04T19:59:52.378Z,4
2016-07-04T20:00:38.635Z,4
2016-07-04T20:01:39.054Z,4
2016-07-04T20:02:38.645Z,0
2016-07-04T20:03:37.590Z,4
2016-07-04T20:04:52.655Z,4
2016-07-04T20:05:37.200Z,4
2016-07-04T20:06:52.049Z,0
2016-07-04T20:07:38.501Z,0
2016-07-04T20:08:38.511Z,0
2016-07-04T20:09:52.069Z,0
2016-07-04T20:10:52.080Z,0
2016-07-04T20:11:38.531Z,0
2016-07-04T20:12:37.878Z,0
2016-07-04T20:13:37.272Z,0
2016-07-04T20:14:37.257Z,0
2016-07-04T20:15:52.525Z,0
2016-07-04T20:16:36.672Z,0
2016-07-04T20:17:52.748Z,0
2016-07-04T20:18:37.495Z,0
2016-07-04T20:19:37.726Z,0
2016-07-04T20:20:36.900Z,0
2016-07-04T20:21:37.522Z,0
2016-07-04T20:22:37.730Z,0
2016-07-04T20:23:36.716Z,0
2016-07-04T20:24:52.797Z,0
2016-07-04T20:25:52.191Z,0
2016-07-04T20:27:06.430Z,0
2016-07-04T20:27:37.388Z,0
2016-07-04T20:28:38.453Z,0
2016-07-04T20:29:38.098Z,0
2016-07-04T20:30:53.453Z,0
2016-07-04T20:31:52.436Z,0
2016-07-04T20:33:38.650Z,0
2016-07-04T20:34:38.663Z,0
2016-07-04T20:35:38.491Z,0
2016-07-04T20:37:38.319Z,0
2016-07-04T20:38:37.897Z,0
2016-07-04T20:39:38.116Z,0
2016-07-04T20:40:38.119Z,0
2016-07-04T20:42:38.137Z,0
2016-07-04T20:43:38.354Z,0
2016-07-04T20:44:38.151Z,0
2016-07-04T20:45:38.154Z,0
2016-07-04T20:46:52.573Z,0
2016-07-04T20:47:38.585Z,0
2016-07-04T20:49:38.557Z,0
2016-07-04T20:50:38.205Z,0
2016-07-04T20:51:38.406Z,0
2016-07-04T20:52:38.383Z,0
2016-07-04T20:54:52.415Z,0
2016-07-04T20:55:52.015Z,0
2016-07-04T20:56:38.242Z,0
2016-07-04T21:00:38.262Z,0
2016-07-04T21:01:52.056Z,0
2016-07-04T21:02:38.490Z,0
2016-07-04T21:03:51.860Z,0
2016-07-04T21:04:53.149Z,0
2016-07-04T21:05:38.889Z,0
2016-07-04T21:06:38.679Z,0
2016-07-04T21:07:38.286Z,0
2016-07-04T21:08:38.934Z,0
2016-07-04T21:09:38.919Z,0
2016-07-04T21:10:52.536Z,0
2016-07-04T21:11:38.341Z,0
2016-07-04T21:12:38.183Z,0
2016-07-04T21:13:37.746Z,0
2016-07-04T21:14:37.939Z,0
2016-07-04T21:15:38.547Z,0
2016-07-04T21:16:38.556Z,0
2016-07-04T21:18:37.982Z,0
2016-07-04T21:19:37.797Z,0
2016-07-04T21:20:38.408Z,0
2016-07-04T21:21:37.806Z,0
2016-07-04T21:22:37.810Z,0
2016-07-04T21:23:37.814Z,0
2016-07-04T21:24:39.491Z,0
2016-07-04T21:26:39.276Z,0
2016-07-04T21:27:38.921Z,0
2016-07-04T21:28:38.063Z,0
2016-07-04T21:29:53.502Z,0
2016-07-04T21:30:38.490Z,0
2016-07-04T21:31:38.509Z,0
2016-07-04T21:32:38.507Z,0
2016-07-04T21:34:52.490Z,0
2016-07-04T21:35:53.316Z,0
2016-07-04T21:36:52.304Z,0
2016-07-04T21:37:53.331Z,0
2016-07-04T21:39:53.402Z,0
2016-07-04T21:40:39.353Z,0
2016-07-04T21:41:39.185Z,0
2016-07-04T21:42:52.142Z,0
2016-07-04T21:43:52.967Z,0
2016-07-04T21:44:52.155Z,0
2016-07-04T21:45:37.513Z,0
2016-07-04T21:46:38.005Z,0
2016-07-04T21:47:53.203Z,0
2016-07-04T21:48:37.745Z,0
2016-07-04T21:49:39.651Z,0
2016-07-04T21:50:39.424Z,0
2016-07-04T21:51:39.001Z,0
2016-07-04T21:52:37.569Z,0
2016-07-04T21:53:39.443Z,0
2016-07-04T21:55:39.282Z,0
2016-07-04T21:56:39.321Z,0
2016-07-04T21:57:53.479Z,0
2016-07-04T21:58:37.404Z,0
2016-07-04T21:59:39.504Z,0
2016-07-04T22:00:39.509Z,0
2016-07-04T22:01:39.515Z,0
2016-07-04T22:02:39.517Z,0
2016-07-04T22:03:39.525Z,0
2016-07-04T22:04:38.065Z,0
2016-07-04T22:05:39.954Z,0
2016-07-04T22:07:39.524Z,0
2016-07-04T22:08:39.766Z,0
2016-07-04T22:09:39.384Z,0
2016-07-04T22:10:39.136Z,0
2016-07-04T22:11:39.373Z,0
2016-07-04T22:13:39.389Z,0
2016-07-04T22:14:53.192Z,0
2016-07-04T22:15:38.998Z,0
2016-07-04T22:16:38.590Z,0
2016-07-04T22:17:39.391Z,0
2016-07-04T22:18:38.602Z,0
2016-07-04T22:20:08.056Z,0
2016-07-04T22:21:38.832Z,0
2016-07-04T22:22:38.854Z,0
2016-07-04T22:24:38.818Z,0
2016-07-04T22:25:54.490Z,0
2016-07-04T22:26:39.062Z,0
2016-07-04T22:27:53.752Z,0
2016-07-04T22:29:07.488Z,0
2016-07-04T22:29:38.232Z,0
2016-07-04T22:30:38.880Z,0
2016-07-04T22:31:53.903Z,0
2016-07-04T22:32:39.667Z,0
2016-07-04T22:33:39.267Z,0
2016-07-04T22:34:53.302Z,0
2016-07-04T22:35:39.080Z,0
2016-07-04T22:36:38.888Z,0
2016-07-04T22:37:37.846Z,0
2016-07-04T22:38:53.740Z,0
2016-07-04T22:39:39.523Z,0
2016-07-04T22:40:38.949Z,0
2016-07-04T22:41:52.518Z,0
2016-07-04T22:43:07.991Z,0
2016-07-04T22:43:52.743Z,0
2016-07-04T22:44:37.699Z,0
2016-07-04T22:45:38.323Z,0
2016-07-04T22:46:53.382Z,0
2016-07-04T22:47:38.548Z,0
2016-07-04T22:49:53.398Z,0
2016-07-04T22:51:38.565Z,0
2016-07-04T22:52:38.362Z,0
2016-07-04T22:54:37.974Z,0
2016-07-04T22:55:38.558Z,0
2016-07-04T22:56:38.394Z,0
2016-07-04T22:57:38.619Z,0
2016-07-04T22:58:38.419Z,0
2016-07-04T22:59:38.416Z,0
2016-07-04T23:00:38.425Z,0
2016-07-04T23:01:38.437Z,0
2016-07-04T23:03:38.821Z,0
2016-07-04T23:05:39.251Z,0
2016-07-04T23:07:39.083Z,0
2016-07-04T23:08:39.089Z,0
2016-07-04T23:09:39.100Z,0
2016-07-04T23:11:39.315Z,0
2016-07-04T23:12:38.520Z,0
2016-07-04T23:13:38.729Z,0
2016-07-04T23:14:53.161Z,0
2016-07-04T23:15:39.351Z,0
2016-07-04T23:16:53.182Z,0
2016-07-04T23:17:38.707Z,0
2016-07-04T23:18:39.337Z,0
2016-07-04T23:20:53.169Z,0
2016-07-04T23:21:38.328Z,0
2016-07-04T23:23:37.925Z,0
2016-07-04T23:24:37.936Z,0
2016-07-04T23:25:37.933Z,0
2016-07-04T23:26:38.532Z,0
2016-07-04T23:27:37.960Z,0
2016-07-04T23:28:38.574Z,0
2016-07-04T23:29:38.768Z,0
2016-07-04T23:30:38.589Z,0
2016-07-04T23:31:38.811Z,0
2016-07-04T23:32:39.636Z,0
2016-07-04T23:33:38.821Z,0
2016-07-04T23:34:37.994Z,0
2016-07-04T23:36:39.925Z,0
2016-07-04T23:37:38.649Z,0
2016-07-04T23:38:39.242Z,0
2016-07-04T23:39:40.696Z,0
2016-07-04T23:40:38.878Z,0
2016-07-04T23:41:54.319Z,0
2016-07-04T23:42:39.298Z,0
2016-07-04T23:43:40.563Z,0
2016-07-04T23:44:54.521Z,0
2016-07-04T23:45:39.083Z,0
2016-07-04T23:46:38.885Z,0
2016-07-04T23:47:39.096Z,0
2016-07-04T23:48:39.507Z,0
2016-07-04T23:49:53.740Z,0
2016-07-04T23:50:39.107Z,0
2016-07-04T23:51:40.775Z,0
2016-07-04T23:52:54.380Z,0
2016-07-04T23:53:39.321Z,0
2016-07-04T23:54:39.331Z,0
2016-07-04T23:56:38.757Z,0
2016-07-04T23:57:39.774Z,0
2016-07-04T23:58:39.369Z,0
2016-07-04T23:59:53.173Z,0
